This is the latest recevied weather packets stored in our database for station/object NF3Q. If no packets are shown the sender has not sent any weather packets the latest 10 day(s).
| Time | Temp. | Humidity | Pressure | Rain* | Wind** | Luminosity | Snow |
|---|---|---|---|---|---|---|---|
| 1777087207 | 17.22° C | 86% | 1007.6 hPa | 0 mm | - | - | - |
| 1777086926 | 17.22° C | 87% | 1007.6 hPa | 0 mm | - | - | - |
| 1777086316 | 17.22° C | 87% | 1007.6 hPa | 0 mm | - | - | - |
| 1777086010 | 17.22° C | 86% | 1007.6 hPa | 0 mm | - | - | - |
| 1777083008 | 17.78° C | 82% | 1007.9 hPa | 0 mm | - | - | - |
| 1777082712 | 18.33° C | 81% | 1007.7 hPa | 0 mm | - | - | - |
| 1777081208 | 18.89° C | 81% | 1007.3 hPa | 0.25 mm | - | - | - |
| 1777078504 | 20° C | 70% | 1007.7 hPa | 2.29 mm | - | - | - |
| 1777075205 | 25.56° C | 42% | 1006.8 hPa | 0 mm | - | - | - |
| 1777073415 | 26.11° C | 38% | 1006.9 hPa | 0 mm | - | - | - |
| 1777071634 | 26.67° C | 38% | 1006.5 hPa | 0 mm | - | - | - |
| 1777068029 | 28.33° C | 36% | 1006.4 hPa | 0 mm | - | - | - |
| 1777066504 | 28.33° C | 35% | 1006.6 hPa | 0 mm | - | - | - |
| 1777066214 | 28.89° C | 35% | 1006.5 hPa | 0 mm | - | - | - |
| 1777065318 | 28.89° C | 36% | 1006.6 hPa | 0 mm | - | - | - |
| 1777062615 | 27.78° C | 33% | 1007 hPa | 0 mm | - | - | - |
| 1777061716 | 27.78° C | 34% | 1007 hPa | 0 mm | - | - | - |
| 1777060508 | 28.33° C | 32% | 1007.4 hPa | 0 mm | - | - | - |
| 1777057220 | 28.33° C | 33% | 1007.6 hPa | 0 mm | - | - | - |
| 1777056907 | 28.89° C | 32% | 1007.7 hPa | 0 mm | - | - | - |
| 1777055108 | 28.33° C | 34% | 1007.9 hPa | 0 mm | - | - | - |
| 1777054514 | 27.78° C | 36% | 1008 hPa | 0 mm | - | - | - |
| 1777053628 | 27.22° C | 36% | 1008.2 hPa | 0 mm | - | - | - |
| 1777053008 | 27.22° C | 36% | 1008.2 hPa | 0 mm | - | - | - |
| 1777052409 | 26.67° C | 38% | 1008.2 hPa | 0 mm | - | - | - |
* Rain latest hour (hover to see other rain measurements)
** Current wind speed in m/s (hover to see current wind gust speed)